Washington Township, Ohio
Current Conditions -  °F | °C
As of 4:53 AM on Friday 31 Oct 2014 (Local Time) from KMGY Reporting Station
Overcast Overcast  
Wind Chill: 42°   Ceiling: 5500
Heat Index: 42°   Visibility: 10mi
Dew Point: 38°   Wind: 3mph
Humidity: 85%   Direction: 160°SSE
Pressure: 29.98"   Gusts: NA
Location:  39.6729°N, 84.0975°W
Report Text: KMGY 310853Z AUTO 16003KT 10SM OVC055 06/03 A2998 RMK AO2 RAE0754 SLP156 P0000 60000 T00560033 58012
Loading
Personal Weather Stations






























Interactive Weather Map
Tropical Storm Tracking
New forecast layout! Learn more

10-Day Weather Forecast

Advertisements
Track Severe Weather on mobile